Time;durP1;ratioP1;P1;durP2;ratioP2;P2;SDS_P1;SDS_P2;PMS_P1;PMS_P2;Temp;Humidity;BMP_temperature;BMP_pressure;BME280_temperature;BME280_humidity;BME280_pressure;Samples;Min_cycle;Max_cycle;Signal;HPM_P1;HPM_P2
2021/04/21 00:01:54;;;;;;;22.20;13.38;;;9.00;99.90;;;;;;4940135;29;20469;-85
2021/04/21 00:04:22;;;;;;;28.52;14.68;;;9.00;99.90;;;;;;4940122;29;20047;-85
2021/04/21 00:06:48;;;;;;;34.40;16.95;;;9.00;99.90;;;;;;4940188;29;20062;-85
2021/04/21 00:09:17;;;;;;;30.90;16.95;;;9.10;99.90;;;;;;4940056;29;20071;-83
2021/04/21 00:11:44;;;;;;;48.00;23.90;;;9.10;99.90;;;;;;4939912;29;20055;-85
2021/04/21 00:14:11;;;;;;;47.17;24.35;;;9.20;99.90;;;;;;4940205;29;20055;-85
2021/04/21 00:16:37;;;;;;;44.47;24.70;;;9.40;99.90;;;;;;4940137;29;20058;-86
2021/04/21 00:19:05;;;;;;;39.75;23.33;;;9.60;99.90;;;;;;4939852;29;20060;-85
2021/04/21 00:21:33;;;;;;;48.05;24.67;;;9.70;99.90;;;;;;4940372;29;20103;-84
2021/04/21 00:23:59;;;;;;;48.58;24.13;;;9.90;99.90;;;;;;4939763;29;20051;-85
2021/04/21 00:26:26;;;;;;;39.08;24.27;;;10.00;99.90;;;;;;4939685;29;20476;-85
2021/04/21 00:28:53;;;;;;;46.17;25.10;;;10.10;99.90;;;;;;4939904;29;20047;-85
2021/04/21 00:31:20;;;;;;;53.58;23.75;;;10.10;99.90;;;;;;4939772;29;20060;-85
2021/04/21 00:33:47;;;;;;;45.25;24.45;;;10.20;99.90;;;;;;4939543;29;20051;-85
2021/04/21 00:36:15;;;;;;;43.65;25.70;;;10.20;99.90;;;;;;4939587;29;20114;-84
2021/04/21 00:38:42;;;;;;;50.33;24.30;;;10.30;99.90;;;;;;4939454;29;20483;-84
2021/04/21 00:41:14;;;;;;;46.78;25.52;;;10.30;99.90;;;;;;4939404;29;20059;-85
2021/04/21 00:43:44;;;;;;;44.22;23.25;;;10.40;99.90;;;;;;4938502;29;20127;-85
2021/04/21 00:46:12;;;;;;;41.17;24.60;;;10.30;99.90;;;;;;4939627;29;20091;-82
2021/04/21 00:48:46;;;;;;;48.53;24.35;;;10.30;99.90;;;;;;4939370;29;20055;-88
2021/04/21 00:51:13;;;;;;;45.45;23.92;;;10.40;99.90;;;;;;4939471;29;20455;-86
2021/04/21 00:53:42;;;;;;;43.33;23.38;;;10.30;99.90;;;;;;4939533;29;20159;-86
2021/04/21 00:56:12;;;;;;;43.72;23.83;;;10.30;99.90;;;;;;4939573;29;20048;-86
2021/04/21 00:58:47;;;;;;;41.40;23.38;;;10.30;99.90;;;;;;4939325;29;20196;-86
2021/04/21 01:01:14;;;;;;;37.97;21.23;;;10.30;99.90;;;;;;4939443;29;20185;-87
2021/04/21 01:03:42;;;;;;;41.10;24.23;;;10.20;99.90;;;;;;4939088;29;20388;-86
2021/04/21 01:06:11;;;;;;;46.28;24.83;;;10.20;99.90;;;;;;4939271;29;20074;-87
2021/04/21 01:08:43;;;;;;;45.85;24.60;;;10.20;99.90;;;;;;4938939;29;20461;-86
2021/04/21 01:11:12;;;;;;;41.47;24.10;;;10.10;99.90;;;;;;4938944;29;20055;-87
2021/04/21 01:13:42;;;;;;;39.85;23.08;;;10.00;99.90;;;;;;4938887;29;20461;-87
2021/04/21 01:16:09;;;;;;;46.80;23.27;;;10.00;99.90;;;;;;4939052;29;20082;-87
2021/04/21 01:18:35;;;;;;;51.58;24.45;;;9.90;99.90;;;;;;4939039;29;20052;-86
2021/04/21 01:21:03;;;;;;;43.28;23.15;;;9.90;99.90;;;;;;4939074;29;20058;-87
2021/04/21 01:23:43;;;;;;;43.15;23.25;;;9.90;99.90;;;;;;4938671;29;20063;-87
2021/04/21 01:26:36;;;;;;;47.25;23.10;;;9.90;99.90;;;;;;4935961;29;20416;-86
2021/04/21 01:29:04;;;;;;;37.05;22.33;;;9.90;99.90;;;;;;4934851;29;20057;-87
2021/04/21 01:31:32;;;;;;;40.33;22.63;;;9.80;99.90;;;;;;4938353;29;20062;-84
2021/04/21 01:33:59;;;;;;;43.03;22.02;;;9.90;99.90;;;;;;4938222;29;20122;-85
2021/04/21 01:36:25;;;;;;;41.05;21.52;;;9.80;99.90;;;;;;4938262;29;20062;-85
2021/04/21 01:38:52;;;;;;;44.40;21.80;;;9.80;99.90;;;;;;4938187;29;20396;-85
2021/04/21 01:41:20;;;;;;;40.80;21.15;;;9.80;99.90;;;;;;4937934;29;20051;-86
2021/04/21 01:43:48;;;;;;;42.53;20.92;;;9.80;99.90;;;;;;4938199;29;20087;-85
2021/04/21 01:46:16;;;;;;;38.38;22.80;;;9.70;99.90;;;;;;4938054;29;20055;-85
2021/04/21 01:48:43;;;;;;;42.33;22.23;;;9.80;99.90;;;;;;4938300;29;20080;-86
2021/04/21 01:51:13;;;;;;;38.13;22.27;;;9.70;99.90;;;;;;4938342;29;20047;-86
2021/04/21 01:53:41;;;;;;;42.70;21.83;;;9.70;99.90;;;;;;4937597;29;20062;-86
2021/04/21 01:56:10;;;;;;;38.33;21.52;;;9.70;99.90;;;;;;4949620;29;20061;-85
2021/04/21 01:59:16;;;;;;;46.13;22.88;;;9.60;99.90;;;;;;4957482;29;20384;-86
2021/04/21 02:01:53;;;;;;;40.05;21.23;;;9.60;99.90;;;;;;4957160;29;20057;-86
2021/04/21 02:04:32;;;;;;;39.97;21.52;;;9.60;99.90;;;;;;4957295;29;20113;-86
2021/04/21 02:07:08;;;;;;;38.58;20.85;;;9.60;99.90;;;;;;4956846;29;20439;-86
2021/04/21 02:09:54;;;;;;;40.10;20.75;;;9.70;99.90;;;;;;4956643;29;20051;-85
2021/04/21 02:12:27;;;;;;;;;;;9.70;99.90;;;;;;4957191;29;20047;-85
2021/04/21 02:14:58;;;;;;;43.10;21.88;;;9.70;99.90;;;;;;4957134;29;19923;-85
2021/04/21 02:17:28;;;;;;;43.42;21.60;;;9.60;99.90;;;;;;4956849;29;20089;-86
2021/04/21 02:19:56;;;;;;;38.90;20.17;;;9.60;99.90;;;;;;4956638;29;20055;-86
2021/04/21 02:22:33;;;;;;;37.60;21.77;;;9.60;99.90;;;;;;4956989;29;20098;-85
2021/04/21 02:25:06;;;;;;;39.05;22.60;;;9.60;99.90;;;;;;4956695;29;20062;-85
2021/04/21 02:27:37;;;;;;;44.25;23.27;;;9.60;99.90;;;;;;4956610;29;20066;-86
2021/04/21 02:30:05;;;;;;;45.22;22.90;;;9.50;99.90;;;;;;4956894;29;20069;-85
2021/04/21 02:32:39;;;;;;;45.25;25.60;;;9.50;99.90;;;;;;4956519;29;20461;-86
2021/04/21 02:35:09;;;;;;;45.85;23.98;;;9.40;99.90;;;;;;4955703;29;20059;-85
2021/04/21 02:37:38;;;;;;;44.63;24.73;;;9.40;99.90;;;;;;4955504;29;20059;-85
2021/04/21 02:40:08;;;;;;;45.88;24.33;;;9.40;99.90;;;;;;4956062;29;20073;-85
2021/04/21 02:42:37;;;;;;;43.35;23.48;;;9.40;99.90;;;;;;4956330;29;20476;-86
2021/04/21 02:45:06;;;;;;;44.63;23.75;;;9.40;99.90;;;;;;4956382;29;20055;-86
2021/04/21 02:47:37;;;;;;;44.92;23.85;;;9.40;99.90;;;;;;4956535;29;20078;-86
2021/04/21 02:50:06;;;;;;;46.55;24.42;;;9.30;99.90;;;;;;4956498;29;20047;-86
2021/04/21 02:52:40;;;;;;;51.22;23.05;;;9.30;99.90;;;;;;4956220;29;20365;-86
2021/04/21 02:55:12;;;;;;;36.58;20.60;;;9.20;99.90;;;;;;4955992;29;20488;-86
2021/04/21 02:57:46;;;;;;;45.25;22.20;;;9.20;99.90;;;;;;4956187;29;20059;-87
2021/04/21 03:00:14;;;;;;;47.08;21.45;;;9.20;99.90;;;;;;4956288;29;20202;-87
2021/04/21 03:02:44;;;;;;;43.00;21.35;;;9.20;99.90;;;;;;4956113;29;20597;-85
2021/04/21 03:05:13;;;;;;;33.80;18.42;;;9.20;99.90;;;;;;4956161;28;20468;-87
2021/04/21 03:07:51;;;;;;;35.85;20.67;;;9.20;99.90;;;;;;4959658;29;20469;-86
2021/04/21 03:10:19;;;;;;;29.75;18.33;;;9.10;99.90;;;;;;4960113;29;20499;-87
2021/04/21 03:12:47;;;;;;;37.08;20.33;;;9.10;99.90;;;;;;4959977;29;20075;-87
2021/04/21 03:15:16;;;;;;;33.60;18.90;;;9.10;99.90;;;;;;4960137;29;20443;-87
2021/04/21 03:17:43;;;;;;;31.48;18.13;;;9.10;99.90;;;;;;4959998;29;20526;-87
2021/04/21 03:20:13;;;;;;;46.97;20.48;;;9.10;99.90;;;;;;4960186;29;20055;-87
2021/04/21 03:22:39;;;;;;;30.00;15.50;;;9.00;99.90;;;;;;4960115;29;20126;-87
2021/04/21 03:25:09;;;;;;;31.85;16.75;;;9.00;99.90;;;;;;4959569;29;20485;-87
2021/04/21 03:27:37;;;;;;;27.63;15.80;;;9.00;99.90;;;;;;4959882;29;20051;-86
2021/04/21 03:30:05;;;;;;;32.33;17.38;;;8.90;99.90;;;;;;4960040;29;20051;-87
2021/04/21 03:32:36;;;;;;;47.15;19.08;;;8.90;99.90;;;;;;4960065;29;20051;-87
2021/04/21 03:35:04;;;;;;;32.03;16.20;;;8.90;99.90;;;;;;4959896;29;20050;-88
2021/04/21 03:37:43;;;;;;;30.27;14.75;;;8.90;99.90;;;;;;4959530;29;20062;-87
2021/04/21 03:40:10;;;;;;;27.48;16.80;;;8.90;99.90;;;;;;4959716;29;20065;-87
2021/04/21 03:42:38;;;;;;;28.15;15.35;;;8.80;99.90;;;;;;4959744;29;20046;-87
2021/04/21 03:45:05;;;;;;;36.80;15.88;;;8.80;99.90;;;;;;4960012;29;20051;-86
2021/04/21 03:47:32;;;;;;;29.65;15.30;;;8.80;99.90;;;;;;4959660;29;20057;-87
2021/04/21 03:49:59;;;;;;;27.70;14.70;;;8.80;99.90;;;;;;4959841;29;20080;-86
2021/04/21 03:52:26;;;;;;;27.42;16.60;;;8.80;99.90;;;;;;4959546;29;20099;-85
2021/04/21 03:54:53;;;;;;;34.45;15.65;;;8.80;99.90;;;;;;4959839;29;20373;-85
2021/04/21 03:57:20;;;;;;;28.63;15.70;;;8.80;99.90;;;;;;4959464;29;20464;-84
2021/04/21 03:59:47;;;;;;;27.77;15.23;;;8.80;99.90;;;;;;4959834;29;20059;-85
2021/04/21 04:02:14;;;;;;;25.08;13.82;;;8.70;99.90;;;;;;4959751;29;20054;-86
2021/04/21 04:04:44;;;;;;;22.52;13.45;;;8.70;99.90;;;;;;4959555;29;20486;-87
2021/04/21 04:07:12;;;;;;;24.80;13.05;;;8.70;99.90;;;;;;4959829;29;20057;-85
2021/04/21 04:09:39;;;;;;;23.40;13.05;;;8.70;99.90;;;;;;4959282;29;20063;-86
2021/04/21 04:12:07;;;;;;;27.95;13.48;;;8.70;99.90;;;;;;4959404;29;20055;-86
2021/04/21 04:14:34;;;;;;;21.92;12.02;;;8.70;99.90;;;;;;4959180;29;20464;-86
2021/04/21 04:17:02;;;;;;;19.83;11.50;;;8.70;99.90;;;;;;4958837;28;20435;-85
2021/04/21 04:19:29;;;;;;;15.85;9.52;;;8.60;99.90;;;;;;4959322;29;20051;-85
2021/04/21 04:21:57;;;;;;;17.92;10.50;;;8.60;99.90;;;;;;4959402;29;20058;-85
2021/04/21 04:24:25;;;;;;;13.13;8.75;;;8.60;99.90;;;;;;4958905;29;20061;-86
2021/04/21 04:26:52;;;;;;;18.20;8.98;;;8.60;99.90;;;;;;4959239;29;20055;-85
2021/04/21 04:29:19;;;;;;;14.82;9.85;;;8.60;99.90;;;;;;4959206;29;20047;-85
2021/04/21 04:31:45;;;;;;;14.43;9.13;;;8.60;99.90;;;;;;4959035;29;20047;-85
2021/04/21 04:34:12;;;;;;;20.05;8.23;;;8.60;99.90;;;;;;4958886;29;20494;-84
2021/04/21 04:36:39;;;;;;;13.52;7.72;;;8.60;99.90;;;;;;4958799;29;20132;-85
2021/04/21 04:39:07;;;;;;;12.57;7.75;;;8.60;99.90;;;;;;4958526;29;20055;-86
2021/04/21 04:41:34;;;;;;;11.13;7.05;;;8.60;99.90;;;;;;4958731;29;20377;-87
2021/04/21 04:44:01;;;;;;;12.88;8.50;;;8.50;99.90;;;;;;4958525;29;20051;-87
2021/04/21 04:46:30;;;;;;;12.57;7.32;;;8.50;99.90;;;;;;4958504;29;20479;-85
2021/04/21 04:49:00;;;;;;;12.32;6.05;;;8.50;99.90;;;;;;4958483;29;20071;-86
2021/04/21 04:51:27;;;;;;;9.40;5.82;;;8.50;99.90;;;;;;4958739;29;20055;-87
2021/04/21 04:53:53;;;;;;;10.35;5.45;;;8.50;99.90;;;;;;4958454;29;20057;-87
2021/04/21 04:56:20;;;;;;;10.95;5.72;;;8.50;99.90;;;;;;4958523;29;20094;-86
2021/04/21 04:58:47;;;;;;;9.80;5.65;;;8.50;99.90;;;;;;4958640;29;20411;-86
2021/04/21 05:01:14;;;;;;;7.90;4.53;;;8.50;99.90;;;;;;4958390;29;20047;-87
2021/04/21 05:03:45;;;;;;;6.82;4.18;;;8.50;99.90;;;;;;4958352;29;20051;-87
2021/04/21 05:06:12;;;;;;;7.07;4.30;;;8.50;99.90;;;;;;4958218;29;20121;-86
2021/04/21 05:08:43;;;;;;;11.05;4.82;;;8.50;99.90;;;;;;4958247;29;20059;-86
2021/04/21 05:11:12;;;;;;;10.10;4.47;;;8.50;99.90;;;;;;4958313;29;20059;-86
2021/04/21 05:13:40;;;;;;;7.78;4.43;;;8.50;99.90;;;;;;4958090;29;20558;-85
2021/04/21 05:16:43;;;;;;;6.40;3.30;;;8.50;99.90;;;;;;4957996;29;20062;-86
2021/04/21 05:19:40;;;;;;;9.07;3.83;;;8.40;99.90;;;;;;4958382;29;20062;-85
2021/04/21 05:22:52;;;;;;;10.27;3.65;;;8.40;99.90;;;;;;4958326;29;20059;-86
2021/04/21 05:25:48;;;;;;;7.30;3.97;;;8.50;99.90;;;;;;4958361;29;20051;-85
2021/04/21 05:28:47;;;;;;;8.18;2.97;;;8.40;99.90;;;;;;4957894;28;20126;-85
2021/04/21 05:31:47;;;;;;;5.32;2.97;;;8.40;99.90;;;;;;4861984;29;20479;-84
2021/04/21 05:35:02;;;;;;;5.22;3.28;;;8.40;99.90;;;;;;4861988;29;20050;-84
2021/04/21 05:38:01;;;;;;;7.50;3.05;;;8.40;99.90;;;;;;4861896;29;20057;-85
2021/04/21 05:41:19;;;;;;;6.80;3.00;;;8.50;99.90;;;;;;4837421;29;20495;-84
2021/04/21 05:44:19;;;;;;;7.10;2.63;;;8.50;99.90;;;;;;4862215;29;20471;-84
2021/04/21 05:47:30;;;;;;;7.53;2.72;;;8.50;99.90;;;;;;4861137;29;20075;-85
2021/04/21 05:50:34;;;;;;;4.72;2.75;;;8.50;99.90;;;;;;4841758;29;20157;-86
2021/04/21 05:53:26;;;;;;;5.68;2.80;;;8.50;99.90;;;;;;4861598;29;20049;-83
2021/04/21 05:56:21;;;;;;;4.95;2.67;;;8.60;99.90;;;;;;4861471;29;20076;-86
2021/04/21 05:59:26;;;;;;;3.83;2.35;;;8.60;99.90;;;;;;4861540;29;20053;-87
2021/04/21 06:01:55;;;;;;;11.25;3.88;;;8.60;99.90;;;;;;4824874;29;20480;-88
2021/04/21 06:04:23;;;;;;;8.65;2.60;;;8.70;99.90;;;;;;4825068;29;20050;-87
2021/04/21 06:06:49;;;;;;;5.22;2.10;;;8.70;99.90;;;;;;4831351;29;20086;-85
2021/04/21 06:09:16;;;;;;;6.80;2.53;;;8.70;99.90;;;;;;4879921;29;20153;-84
2021/04/21 06:11:42;;;;;;;6.15;2.10;;;8.80;99.90;;;;;;4879542;29;20056;-86
2021/04/21 06:14:09;;;;;;;11.32;1.95;;;8.90;99.90;;;;;;4879834;29;20067;-85
2021/04/21 06:16:36;;;;;;;3.65;1.83;;;8.90;99.90;;;;;;4866293;29;20402;-86
2021/04/21 06:19:04;;;;;;;3.30;1.88;;;9.00;99.90;;;;;;4860864;29;20046;-85
2021/04/21 06:21:33;;;;;;;4.18;1.45;;;9.10;99.90;;;;;;4861210;29;20353;-85
2021/04/21 06:24:00;;;;;;;4.95;1.73;;;9.20;99.90;;;;;;4861065;29;20551;-84
2021/04/21 06:26:27;;;;;;;8.80;1.73;;;9.20;99.90;;;;;;4860976;29;20171;-86
2021/04/21 06:29:00;;;;;;;2.15;1.13;;;9.30;99.90;;;;;;4860940;29;20377;-85
2021/04/21 06:31:32;;;;;;;3.17;1.48;;;9.40;99.90;;;;;;4860921;29;20061;-84
2021/04/21 06:33:59;;;;;;;6.60;1.05;;;9.40;99.90;;;;;;4860915;29;20053;-85
2021/04/21 06:36:31;;;;;;;3.58;0.93;;;9.50;99.90;;;;;;4860955;29;20061;-86
2021/04/21 06:38:57;;;;;;;3.15;0.80;;;9.50;99.90;;;;;;4909770;29;20056;-85
2021/04/21 06:41:24;;;;;;;6.70;0.82;;;9.60;99.90;;;;;;4918276;29;20445;-84
2021/04/21 06:43:50;;;;;;;6.57;1.02;;;9.60;99.90;;;;;;4918766;29;20388;-86
2021/04/21 06:46:18;;;;;;;3.80;1.10;;;9.60;99.90;;;;;;4918784;29;20052;-86
2021/04/21 06:48:45;;;;;;;2.17;0.95;;;9.60;99.90;;;;;;4918365;29;20083;-86
2021/04/21 06:51:12;;;;;;;5.00;1.00;;;9.60;99.90;;;;;;4918609;29;20052;-86
2021/04/21 06:53:40;;;;;;;4.20;1.50;;;9.70;99.90;;;;;;4918465;29;20052;-87
2021/04/21 06:56:07;;;;;;;3.85;0.80;;;9.70;99.90;;;;;;4918319;29;20096;-85
2021/04/21 06:58:34;;;;;;;3.03;1.00;;;9.80;99.90;;;;;;4918206;29;20458;-83
2021/04/21 07:01:08;;;;;;;4.00;0.90;;;9.80;99.90;;;;;;4918185;29;20080;-88
2021/04/21 07:03:35;;;;;;;2.72;0.80;;;9.80;99.90;;;;;;4918425;29;20078;-86
2021/04/21 07:06:02;;;;;;;2.40;1.20;;;9.90;99.90;;;;;;4918213;29;20048;-85
2021/04/21 07:08:30;;;;;;;6.97;1.10;;;10.00;99.90;;;;;;4918246;29;20476;-86
2021/04/21 07:10:58;;;;;;;2.97;0.82;;;10.10;99.90;;;;;;4918156;29;20059;-86
2021/04/21 07:13:26;;;;;;;2.75;0.93;;;10.30;99.90;;;;;;4918258;29;20056;-85
2021/04/21 07:15:53;;;;;;;6.13;1.05;;;10.50;99.90;;;;;;4918128;29;20392;-85
2021/04/21 07:18:20;;;;;;;5.50;1.05;;;10.80;99.90;;;;;;4918405;29;20052;-85
2021/04/21 07:20:47;;;;;;;4.93;1.17;;;11.80;99.90;;;;;;4918054;29;20492;-83
2021/04/21 07:23:17;;;;;;;2.15;0.85;;;13.30;99.90;;;;;;4918343;29;20056;-82
2021/04/21 07:25:46;;;;;;;5.20;1.15;;;14.80;90.50;;;;;;4918348;29;20051;-82
2021/04/21 07:28:13;;;;;;;3.63;1.13;;;16.40;79.50;;;;;;4917997;29;20056;-82
2021/04/21 07:30:40;;;;;;;8.40;1.05;;;17.20;69.70;;;;;;4918026;29;20087;-81
2021/04/21 07:33:08;;;;;;;3.00;0.65;;;17.40;65.30;;;;;;4917892;29;20048;-81
2021/04/21 07:35:34;;;;;;;2.55;1.02;;;17.70;65.10;;;;;;4917766;29;20473;-83
2021/04/21 07:38:01;;;;;;;6.00;0.70;;;18.20;66.90;;;;;;4918204;29;20048;-82
2021/04/21 07:40:33;;;;;;;2.42;0.43;;;19.00;63.00;;;;;;4936947;29;20063;-83
2021/04/21 07:43:22;;;;;;;6.93;0.63;;;19.60;57.60;;;;;;4937189;29;20088;-82
2021/04/21 07:45:50;;;;;;;4.43;0.77;;;20.00;58.30;;;;;;4937244;29;20131;-82
2021/04/21 07:48:45;;;;;;;5.68;0.93;;;20.20;55.70;;;;;;4936945;29;20091;-82
2021/04/21 07:51:34;;;;;;;4.10;0.73;;;20.30;55.70;;;;;;4937051;29;20449;-81
2021/04/21 07:54:02;;;;;;;3.72;0.70;;;19.20;56.00;;;;;;4940332;29;20047;-82
2021/04/21 07:56:34;;;;;;;2.78;1.10;;;17.50;57.50;;;;;;4940422;29;20146;-83
2021/04/21 07:59:17;;;;;;;3.75;1.00;;;15.80;62.00;;;;;;4940306;29;20146;-83
2021/04/21 08:01:44;;;;;;;5.45;0.80;;;14.60;66.40;;;;;;4937699;29;20048;-82
2021/04/21 08:04:22;;;;;;;10.18;1.40;;;14.00;70.20;;;;;;4940174;29;20051;-81
2021/04/21 08:06:49;;;;;;;5.60;1.80;;;13.40;73.50;;;;;;4940273;29;20481;-83
2021/04/21 08:09:16;;;;;;;4.18;1.00;;;13.00;80.50;;;;;;4940269;29;20051;-82
2021/04/21 08:11:43;;;;;;;5.25;1.73;;;12.90;89.20;;;;;;4940234;29;20112;-82
2021/04/21 08:14:10;;;;;;;5.70;1.60;;;12.60;93.10;;;;;;4939666;29;20056;-82
2021/04/21 08:16:37;;;;;;;14.93;6.03;;;12.50;96.30;;;;;;4940186;29;20056;-82
2021/04/21 08:19:15;;;;;;;5.43;3.20;;;12.50;99.40;;;;;;4939944;29;20146;-82
2021/04/21 08:21:43;;;;;;;21.05;9.63;;;12.50;98.40;;;;;;4940183;29;20047;-83
2021/04/21 08:24:12;;;;;;;11.18;3.85;;;12.60;97.30;;;;;;4939933;29;20051;-82
2021/04/21 08:26:39;;;;;;;12.75;3.88;;;12.70;95.10;;;;;;4940253;29;20056;-82
2021/04/21 08:29:09;;;;;;;9.15;2.42;;;12.70;97.10;;;;;;4939767;29;20461;-81
2021/04/21 08:31:35;;;;;;;11.70;4.03;;;12.80;99.40;;;;;;4939674;29;20146;-81
2021/04/21 08:34:03;;;;;;;12.88;5.32;;;12.70;99.90;;;;;;4939841;29;20051;-81
2021/04/21 08:36:29;;;;;;;24.73;8.55;;;12.80;98.60;;;;;;4939935;29;20052;-82
2021/04/21 08:38:56;;;;;;;19.70;7.53;;;12.90;97.10;;;;;;4939898;29;20055;-81
2021/04/21 08:41:23;;;;;;;28.55;9.68;;;12.80;98.50;;;;;;4939618;29;20065;-81
2021/04/21 08:43:50;;;;;;;19.65;7.80;;;12.70;97.30;;;;;;4939545;29;20048;-82
2021/04/21 08:46:17;;;;;;;21.08;6.05;;;12.60;97.70;;;;;;4939767;29;20059;-82
2021/04/21 08:48:44;;;;;;;7.68;2.83;;;12.50;99.10;;;;;;4939663;29;20048;-82
2021/04/21 08:51:14;;;;;;;16.23;5.03;;;12.50;99.90;;;;;;4939649;29;20512;-82
2021/04/21 08:53:40;;;;;;;17.25;5.35;;;12.50;99.90;;;;;;4939407;29;20389;-81
2021/04/21 08:56:07;;;;;;;14.93;4.97;;;12.40;96.60;;;;;;4939296;29;20056;-83
2021/04/21 08:58:33;;;;;;;9.02;2.25;;;12.30;99.70;;;;;;4939271;29;20083;-81
2021/04/21 09:01:00;;;;;;;14.27;5.03;;;12.20;99.90;;;;;;4939459;29;20055;-82
2021/04/21 09:03:27;;;;;;;10.75;3.45;;;12.20;99.90;;;;;;4938297;29;20099;-82
2021/04/21 09:05:54;;;;;;;21.95;5.18;;;12.10;99.90;;;;;;4939068;29;20055;-83
2021/04/21 09:08:21;;;;;;;17.35;3.38;;;12.10;99.90;;;;;;4939172;29;20056;-82
2021/04/21 09:10:48;;;;;;;9.98;3.45;;;12.10;99.80;;;;;;4939318;29;20388;-82
2021/04/21 09:13:14;;;;;;;7.00;1.83;;;12.00;99.90;;;;;;4938994;29;20048;-83
2021/04/21 09:15:42;;;;;;;5.28;1.40;;;12.00;99.90;;;;;;4939433;29;20051;-82
2021/04/21 09:18:09;;;;;;;13.32;3.00;;;12.00;99.60;;;;;;4938921;29;20465;-84
2021/04/21 09:20:43;;;;;;;5.78;1.95;;;12.00;99.90;;;;;;4939122;29;20052;-84
2021/04/21 09:23:12;;;;;;;9.45;2.72;;;11.90;99.90;;;;;;4938821;29;20055;-83
2021/04/21 09:25:40;;;;;;;6.45;2.25;;;11.90;99.50;;;;;;4938734;29;20067;-84
2021/04/21 09:28:07;;;;;;;12.50;3.13;;;11.90;99.90;;;;;;4938724;29;20055;-84
2021/04/21 09:30:35;;;;;;;11.05;2.00;;;11.90;99.90;;;;;;4938929;29;20388;-84
2021/04/21 09:33:02;;;;;;;4.45;2.45;;;11.90;99.90;;;;;;4938299;29;20051;-84
2021/04/21 09:35:29;;;;;;;11.48;2.78;;;11.90;99.90;;;;;;4938637;29;20187;-84
2021/04/21 09:38:06;;;;;;;11.55;2.70;;;11.90;99.90;;;;;;4938592;29;20056;-84
2021/04/21 09:40:35;;;;;;;8.10;2.17;;;11.90;99.90;;;;;;4940787;29;20154;-85
2021/04/21 09:43:02;;;;;;;6.80;3.15;;;11.90;99.90;;;;;;4944203;29;20142;-85
2021/04/21 09:45:50;;;;;;;7.30;2.92;;;11.90;99.90;;;;;;4938563;29;20058;-83
2021/04/21 09:48:17;;;;;;;9.32;3.92;;;11.90;99.90;;;;;;4934717;29;20051;-86
2021/04/21 09:50:45;;;;;;;6.85;3.55;;;11.90;99.90;;;;;;4938595;29;20051;-86
2021/04/21 09:53:22;;;;;;;7.95;2.97;;;11.90;99.90;;;;;;4938172;29;20048;-85
2021/04/21 09:55:58;;;;;;;5.28;2.60;;;11.90;99.90;;;;;;4942258;29;20130;-86
2021/04/21 09:58:33;;;;;;;13.15;3.00;;;11.90;99.90;;;;;;4938270;29;20070;-86
2021/04/21 10:01:00;;;;;;;11.57;3.67;;;12.00;99.90;;;;;;4937252;29;20446;-86
2021/04/21 10:03:26;;;;;;;14.10;4.28;;;12.10;99.90;;;;;;4938063;29;20384;-84
2021/04/21 10:05:53;;;;;;;12.00;3.67;;;12.10;99.90;;;;;;4938543;29;20052;-84
2021/04/21 10:08:22;;;;;;;7.25;2.83;;;12.20;99.90;;;;;;4937783;29;20561;-85
2021/04/21 10:10:58;;;;;;;7.07;2.80;;;12.20;99.90;;;;;;4937952;29;20429;-84
2021/04/21 10:13:25;;;;;;;9.65;4.00;;;12.20;99.90;;;;;;4938215;29;20075;-84
2021/04/21 10:15:52;;;;;;;7.68;3.17;;;12.30;99.90;;;;;;4937682;29;20079;-83
2021/04/21 10:18:19;;;;;;;9.35;2.97;;;12.30;99.90;;;;;;4938098;29;20055;-83
2021/04/21 10:20:46;;;;;;;7.03;3.25;;;12.20;99.90;;;;;;4937840;29;20393;-84
2021/04/21 10:23:13;;;;;;;16.65;4.63;;;12.20;99.90;;;;;;4938011;29;20055;-84
2021/04/21 10:25:40;;;;;;;9.90;2.70;;;12.30;99.90;;;;;;4937632;29;20442;-84
2021/04/21 10:28:07;;;;;;;12.60;2.30;;;12.30;99.90;;;;;;4937889;29;20059;-84
2021/04/21 10:30:34;;;;;;;6.10;2.10;;;12.20;99.90;;;;;;4937307;29;20063;-84
2021/04/21 10:33:01;;;;;;;7.75;2.13;;;12.10;99.90;;;;;;4937799;29;20048;-84
2021/04/21 10:35:28;;;;;;;8.77;2.58;;;11.90;99.90;;;;;;4937554;29;20062;-83
2021/04/21 10:37:55;;;;;;;8.18;2.13;;;11.90;99.90;;;;;;4937095;29;20052;-84
2021/04/21 10:40:27;;;;;;;9.10;3.20;;;11.90;99.90;;;;;;4937410;29;20366;-83
2021/04/21 10:42:55;;;;;;;9.15;3.55;;;11.90;99.90;;;;;;4937401;29;20054;-83
2021/04/21 10:45:25;;;;;;;11.63;3.72;;;11.90;99.90;;;;;;4937371;29;20055;-84
2021/04/21 10:47:53;;;;;;;22.73;5.78;;;11.90;99.90;;;;;;4937666;29;20052;-84
2021/04/21 10:50:38;;;;;;;12.95;4.28;;;11.70;99.90;;;;;;4937372;29;20047;-83
2021/04/21 10:53:05;;;;;;;13.32;4.70;;;11.70;99.90;;;;;;4937597;29;20108;-86
2021/04/21 10:55:33;;;;;;;12.98;4.45;;;11.80;99.90;;;;;;4937540;29;20194;-83
2021/04/21 10:58:03;;;;;;;12.93;3.70;;;11.80;99.90;;;;;;4937295;29;20399;-83
2021/04/21 11:00:31;;;;;;;10.73;3.70;;;11.90;99.90;;;;;;4937473;29;20047;-84
2021/04/21 11:03:05;;;;;;;7.97;3.85;;;11.90;99.90;;;;;;4937297;29;20494;-83
2021/04/21 11:05:47;;;;;;;11.85;4.13;;;12.00;99.90;;;;;;4937580;29;20384;-83
2021/04/21 11:08:15;;;;;;;12.50;4.43;;;12.10;99.90;;;;;;4937344;29;20468;-84
2021/04/21 11:10:45;;;;;;;11.98;3.53;;;12.20;99.90;;;;;;4937189;29;20052;-83
2021/04/21 11:13:12;;;;;;;13.85;4.00;;;12.30;99.90;;;;;;4937285;29;20115;-84
2021/04/21 11:15:43;;;;;;;11.63;3.42;;;12.30;99.90;;;;;;4937005;29;20063;-84
2021/04/21 11:18:34;;;;;;;11.45;3.20;;;12.30;99.90;;;;;;4937091;29;20063;-86
2021/04/21 11:21:03;;;;;;;9.18;3.17;;;12.30;99.90;;;;;;4937201;29;20484;-86
2021/04/21 11:24:06;;;;;;;8.90;3.47;;;12.40;99.90;;;;;;4937012;29;20054;-84
2021/04/21 11:26:40;;;;;;;11.15;3.38;;;12.50;99.90;;;;;;4933672;29;20131;-85
2021/04/21 11:29:09;;;;;;;7.00;2.70;;;12.40;99.90;;;;;;4941130;29;20061;-83
2021/04/21 11:32:16;;;;;;;11.20;3.20;;;12.50;99.90;;;;;;4940982;29;20052;-85
2021/04/21 11:34:43;;;;;;;13.25;3.20;;;12.30;99.90;;;;;;4845596;29;20069;-86
2021/04/21 11:37:15;;;;;;;13.02;3.63;;;12.30;99.90;;;;;;4845466;29;20140;-84
2021/04/21 11:40:07;;;;;;;10.50;3.20;;;12.20;99.90;;;;;;4845478;29;20139;-85
2021/04/21 11:42:51;;;;;;;10.65;3.60;;;12.20;99.90;;;;;;4845487;29;20145;-86
2021/04/21 11:45:29;;;;;;;7.63;2.90;;;12.30;99.90;;;;;;4845695;29;20072;-85
2021/04/21 11:47:56;;;;;;;8.95;2.60;;;12.30;99.90;;;;;;4845347;29;20463;-84
2021/04/21 11:50:27;;;;;;;10.73;3.10;;;12.30;99.90;;;;;;4845092;29;20057;-85
2021/04/21 11:53:02;;;;;;;10.80;4.70;;;12.40;99.90;;;;;;4845106;29;20150;-85
2021/04/21 11:55:38;;;;;;;11.32;3.88;;;12.40;99.90;;;;;;4845296;29;20559;-84
2021/04/21 11:58:07;;;;;;;8.63;2.95;;;12.50;99.90;;;;;;4845263;29;20053;-85
2021/04/21 12:00:36;;;;;;;8.75;3.50;;;12.50;98.80;;;;;;4845331;29;20058;-84
2021/04/21 12:03:03;;;;;;;9.40;3.03;;;12.60;99.90;;;;;;4845104;29;20046;-83
2021/04/21 12:05:32;;;;;;;14.75;3.10;;;12.60;99.50;;;;;;4895827;29;20090;-83
2021/04/21 12:08:01;;;;;;;13.32;2.97;;;12.80;99.90;;;;;;4940351;29;20082;-84
2021/04/21 12:10:32;;;;;;;12.98;2.67;;;12.90;99.90;;;;;;4940070;29;20469;-83
2021/04/21 12:13:12;;;;;;;16.75;3.35;;;13.00;94.60;;;;;;4940076;29;20112;-82
2021/04/21 12:15:39;;;;;;;9.40;2.90;;;13.00;95.30;;;;;;4940298;29;20096;-85
2021/04/21 12:18:06;;;;;;;13.02;2.58;;;13.00;96.40;;;;;;4940004;29;20048;-84
2021/04/21 12:20:32;;;;;;;9.25;2.53;;;13.10;95.70;;;;;;4940157;29;20061;-84
2021/04/21 12:23:00;;;;;;;12.88;3.13;;;13.10;97.20;;;;;;4939911;29;20171;-85
2021/04/21 12:25:27;;;;;;;16.45;4.88;;;13.10;94.60;;;;;;4940138;29;20066;-83
2021/04/21 12:27:55;;;;;;;12.48;3.05;;;13.10;95.90;;;;;;4939798;29;20485;-82
2021/04/21 12:30:25;;;;;;;10.80;3.33;;;13.30;97.00;;;;;;4939682;29;20052;-84
2021/04/21 12:32:51;;;;;;;12.05;3.45;;;13.50;95.90;;;;;;4939798;29;20134;-85
2021/04/21 12:35:20;;;;;;;13.82;3.03;;;13.40;91.10;;;;;;4939594;29;20070;-85
2021/04/21 12:37:55;;;;;;;8.77;3.58;;;13.30;91.00;;;;;;4939436;29;20484;-85
2021/04/21 12:40:24;;;;;;;15.05;4.03;;;13.20;94.70;;;;;;4939414;29;20066;-84
2021/04/21 12:42:51;;;;;;;10.98;3.42;;;13.30;92.10;;;;;;4939461;29;20058;-83
2021/04/21 12:45:27;;;;;;;10.98;2.95;;;13.20;91.10;;;;;;4939828;29;20056;-83
2021/04/21 12:47:53;;;;;;;10.48;2.85;;;13.30;91.70;;;;;;4939780;29;20059;-82
2021/04/21 12:50:27;;;;;;;11.05;3.10;;;13.30;89.40;;;;;;4939622;29;20051;-83
2021/04/21 12:52:54;;;;;;;7.87;2.67;;;13.50;93.50;;;;;;4939177;29;20052;-81
2021/04/21 12:55:30;;;;;;;7.32;2.75;;;13.70;94.80;;;;;;4935290;29;20055;-81
2021/04/21 12:57:57;;;;;;;9.90;3.10;;;13.90;90.80;;;;;;4939379;29;20069;-83
2021/04/21 13:00:27;;;;;;;7.53;2.65;;;13.90;90.20;;;;;;4939353;29;20052;-83
2021/04/21 13:02:54;;;;;;;6.15;2.10;;;14.00;85.60;;;;;;4939463;29;20054;-83
2021/04/21 13:05:44;;;;;;;16.58;2.35;;;13.90;86.60;;;;;;4939412;29;20055;-83